Time;durP1;ratioP1;P1;durP2;ratioP2;P2;SDS_P1;SDS_P2;PMS_P1;PMS_P2;Temp;Humidity;BMP_temperature;BMP_pressure;BME280_temperature;BME280_humidity;BME280_pressure;Samples;Min_cycle;Max_cycle;Signal;HPM_P1;HPM_P2
2022/08/15 00:00:55;;;;;;;10.83;7.87;;;25.20;42.60;;;;;;5071732;28;20411;-41
2022/08/15 00:03:27;;;;;;;8.90;7.40;;;25.10;43.00;;;;;;5071914;28;20814;-41
2022/08/15 00:05:54;;;;;;;7.23;6.40;;;25.10;43.20;;;;;;5071503;28;20415;-41
2022/08/15 00:08:21;;;;;;;7.27;6.37;;;25.00;43.10;;;;;;5071915;28;20834;-41
2022/08/15 00:10:48;;;;;;;9.00;6.80;;;25.00;43.20;;;;;;5071750;28;20399;-41
2022/08/15 00:13:21;;;;;;;8.70;7.30;;;25.00;43.10;;;;;;5071401;28;20402;-41
2022/08/15 00:15:51;;;;;;;9.67;7.30;;;25.00;43.20;;;;;;5071347;28;20407;-42
2022/08/15 00:18:17;;;;;;;8.47;6.53;;;25.00;43.10;;;;;;5071410;28;20399;-41
2022/08/15 00:20:44;;;;;;;9.47;6.37;;;25.00;43.40;;;;;;5071608;28;20402;-42
2022/08/15 00:23:17;;;;;;;11.70;7.10;;;24.90;43.50;;;;;;5071549;28;20403;-41
2022/08/15 00:25:47;;;;;;;7.97;7.17;;;24.90;43.50;;;;;;5074283;28;20418;-41
2022/08/15 00:28:14;;;;;;;6.40;5.43;;;24.90;43.60;;;;;;5075458;28;20440;-41
2022/08/15 00:30:41;;;;;;;9.00;7.00;;;24.90;43.40;;;;;;5075185;28;20414;-41
2022/08/15 00:33:07;;;;;;;11.00;7.60;;;24.90;43.40;;;;;;5075304;28;20457;-41
2022/08/15 00:35:36;;;;;;;8.70;6.37;;;24.90;43.50;;;;;;5074963;28;20517;-41
2022/08/15 00:38:20;;;;;;;11.70;7.03;;;24.90;43.60;;;;;;5074957;28;20506;-41
2022/08/15 00:43:40;;;;;;;9.13;7.50;;;24.80;43.40;;;;;;5075248;28;20464;-41
2022/08/15 00:46:09;;;;;;;10.27;7.90;;;24.70;43.50;;;;;;5074557;28;20430;-41
2022/08/15 00:48:44;;;;;;;11.00;6.40;;;24.70;43.50;;;;;;5074753;28;20407;-41
2022/08/15 00:51:22;;;;;;;10.23;7.80;;;24.70;43.60;;;;;;5074868;28;20438;-41
2022/08/15 00:54:11;;;;;;;9.07;7.73;;;24.70;43.80;;;;;;5074861;28;20438;-41
2022/08/15 00:56:51;;;;;;;8.37;6.77;;;24.60;43.90;;;;;;5073409;28;20458;-41
2022/08/15 00:59:22;;;;;;;10.53;7.77;;;24.60;44.00;;;;;;5074652;28;20460;-41
2022/08/15 01:01:48;;;;;;;9.27;7.47;;;24.50;44.30;;;;;;5074845;28;20504;-41
2022/08/15 01:04:17;;;;;;;7.80;6.10;;;24.40;44.10;;;;;;5074353;28;20407;-41
2022/08/15 01:06:45;;;;;;;10.10;7.77;;;24.40;44.20;;;;;;5074446;28;20403;-41
2022/08/15 01:09:13;;;;;;;12.37;7.40;;;24.30;44.40;;;;;;5074590;28;20464;-41
2022/08/15 01:12:17;;;;;;;10.13;7.50;;;24.30;44.50;;;;;;5074356;28;20418;-41
2022/08/15 01:14:47;;;;;;;7.00;6.30;;;24.30;44.50;;;;;;5058546;28;20438;-41
2022/08/15 01:17:14;;;;;;;8.57;6.83;;;24.30;44.40;;;;;;5073994;28;20458;-41
2022/08/15 01:19:50;;;;;;;9.07;6.93;;;24.30;44.30;;;;;;5074448;28;20414;-41
2022/08/15 01:22:41;;;;;;;11.17;7.77;;;24.30;44.30;;;;;;5074306;28;20557;-41
2022/08/15 01:25:16;;;;;;;10.57;7.27;;;24.30;44.60;;;;;;5073988;28;20492;-41
2022/08/15 01:27:47;;;;;;;8.70;7.80;;;24.10;44.90;;;;;;5073987;28;20423;-41
2022/08/15 01:30:17;;;;;;;9.93;7.97;;;24.10;45.00;;;;;;5074249;28;20398;-41
2022/08/15 01:32:43;;;;;;;8.70;6.60;;;24.10;44.80;;;;;;5074012;28;20407;-41
2022/08/15 01:35:11;;;;;;;8.70;7.57;;;24.10;44.60;;;;;;5073537;28;20434;-41
2022/08/15 01:37:39;;;;;;;9.13;6.70;;;24.20;44.50;;;;;;5072373;28;20424;-41
2022/08/15 01:40:28;;;;;;;9.50;7.30;;;24.20;44.40;;;;;;5073782;28;20446;-41
2022/08/15 01:42:55;;;;;;;12.93;8.30;;;24.10;44.70;;;;;;5073630;28;20458;-41
2022/08/15 01:45:26;;;;;;;9.70;8.13;;;24.00;45.10;;;;;;5073787;28;20468;-41
2022/08/15 01:48:24;;;;;;;9.93;8.53;;;24.00;45.20;;;;;;5073740;28;20724;-41
2022/08/15 01:51:04;;;;;;;9.73;7.63;;;24.00;45.10;;;;;;5054543;28;20492;-41
2022/08/15 01:53:40;;;;;;;10.40;6.90;;;24.00;44.90;;;;;;5073687;28;20453;-41
2022/08/15 01:56:11;;;;;;;8.70;6.57;;;23.90;45.20;;;;;;5072941;28;20906;-41
2022/08/15 01:58:43;;;;;;;9.70;7.53;;;23.90;45.40;;;;;;5073602;28;20482;-41
2022/08/15 02:01:20;;;;;;;11.10;7.43;;;23.80;45.10;;;;;;5073439;28;20455;-41
2022/08/15 02:03:48;;;;;;;7.37;6.40;;;23.90;45.00;;;;;;5073480;28;20406;-41
2022/08/15 02:06:25;;;;;;;8.47;6.90;;;23.90;45.00;;;;;;5073220;28;20470;-41
2022/08/15 02:08:52;;;;;;;10.33;7.57;;;23.80;45.10;;;;;;5073294;28;20478;-41
2022/08/15 02:11:21;;;;;;;10.10;8.03;;;23.80;45.20;;;;;;5073170;28;20429;-41
2022/08/15 02:13:49;;;;;;;8.80;7.80;;;23.80;45.40;;;;;;5073084;28;20896;-41
2022/08/15 02:16:16;;;;;;;9.10;7.13;;;23.70;45.60;;;;;;5072875;28;20438;-41
2022/08/15 02:18:42;;;;;;;7.90;6.50;;;23.60;45.70;;;;;;5073321;28;20403;-41
2022/08/15 02:21:08;;;;;;;12.33;8.83;;;23.60;45.60;;;;;;5071697;28;20607;-41
2022/08/15 02:23:34;;;;;;;7.93;6.40;;;23.60;45.60;;;;;;5073310;28;20260;-41
2022/08/15 02:26:03;;;;;;;8.67;7.53;;;23.50;45.50;;;;;;5072498;28;20472;-41
2022/08/15 02:28:29;;;;;;;9.57;7.80;;;23.50;45.70;;;;;;5072902;28;20402;-41
2022/08/15 02:30:55;;;;;;;7.97;6.80;;;23.50;45.70;;;;;;5072723;28;20933;-41
2022/08/15 02:33:22;;;;;;;8.53;7.30;;;23.50;45.60;;;;;;5072732;28;20432;-41
2022/08/15 02:35:49;;;;;;;11.63;8.37;;;23.50;45.60;;;;;;5072747;28;20556;-41
2022/08/15 02:38:15;;;;;;;11.40;8.20;;;23.50;45.60;;;;;;5072998;28;20418;-41
2022/08/15 02:40:41;;;;;;;11.03;8.33;;;23.50;45.40;;;;;;5072807;28;20410;-41
2022/08/15 02:43:09;;;;;;;7.60;6.40;;;23.50;45.80;;;;;;5072781;28;20308;-41
2022/08/15 02:45:39;;;;;;;11.23;8.67;;;23.50;45.70;;;;;;5072194;28;20193;-41
2022/08/15 02:48:10;;;;;;;10.50;9.00;;;23.40;45.40;;;;;;5071155;22;20491;-42
2022/08/15 02:50:37;;;;;;;8.27;7.07;;;23.40;45.60;;;;;;5052777;28;20427;-42
2022/08/15 02:53:17;;;;;;;10.87;9.17;;;23.40;46.00;;;;;;5052346;28;20438;-42
2022/08/15 02:55:46;;;;;;;9.83;6.83;;;23.30;45.70;;;;;;5052217;28;20387;-42
2022/08/15 02:58:12;;;;;;;11.30;8.70;;;23.30;45.60;;;;;;5034400;28;20439;-42
2022/08/15 03:00:41;;;;;;;11.37;8.87;;;23.30;45.60;;;;;;5052376;28;20736;-43
2022/08/15 03:03:11;;;;;;;15.57;7.13;;;23.40;45.60;;;;;;5052329;28;20466;-42
2022/08/15 03:05:40;;;;;;;9.27;8.43;;;23.40;45.30;;;;;;5052340;28;20483;-42
2022/08/15 03:08:06;;;;;;;8.10;7.20;;;23.40;45.20;;;;;;5052257;28;20428;-42
2022/08/15 03:10:32;;;;;;;8.63;7.67;;;23.40;45.50;;;;;;5052233;28;20431;-42
2022/08/15 03:13:07;;;;;;;11.80;7.87;;;23.40;45.30;;;;;;5052153;28;20423;-42
2022/08/15 03:16:00;;;;;;;8.20;7.40;;;23.40;45.20;;;;;;5052000;28;20384;-42
2022/08/15 03:18:30;;;;;;;11.00;8.20;;;23.40;45.20;;;;;;5047147;28;20449;-42
2022/08/15 03:20:58;;;;;;;9.50;7.60;;;23.40;45.20;;;;;;5052105;28;20407;-42
2022/08/15 03:23:27;;;;;;;10.70;8.97;;;23.30;45.30;;;;;;5051900;28;20413;-42
2022/08/15 03:25:59;;;;;;;9.10;7.50;;;23.30;45.30;;;;;;5033831;28;20426;-42
2022/08/15 03:28:28;;;;;;;11.70;8.60;;;23.20;45.30;;;;;;5051875;28;20974;-42
2022/08/15 03:30:56;;;;;;;9.83;8.67;;;23.10;45.70;;;;;;5051845;28;20813;-42
2022/08/15 03:33:23;;;;;;;9.70;8.40;;;23.10;45.90;;;;;;5051906;28;20906;-42
2022/08/15 03:35:50;;;;;;;10.43;7.20;;;23.00;45.80;;;;;;5051914;28;20841;-42
2022/08/15 03:38:17;;;;;;;8.27;7.13;;;23.10;45.70;;;;;;5051797;28;20416;-42
2022/08/15 03:40:48;;;;;;;10.30;8.00;;;23.10;45.60;;;;;;5051783;28;20397;-42
2022/08/15 03:43:27;;;;;;;8.00;7.20;;;23.10;45.50;;;;;;5033864;28;20496;-42
2022/08/15 03:46:00;;;;;;;10.20;8.30;;;23.10;45.70;;;;;;5051544;28;20403;-42
2022/08/15 03:48:29;;;;;;;13.90;7.90;;;23.00;45.80;;;;;;5051618;28;20467;-42
2022/08/15 03:50:57;;;;;;;11.33;8.37;;;22.90;46.20;;;;;;5051690;28;20395;-42
2022/08/15 03:53:25;;;;;;;10.70;9.00;;;22.90;46.10;;;;;;5051607;28;20399;-43
2022/08/15 03:55:51;;;;;;;8.83;7.27;;;22.90;46.00;;;;;;5051556;28;20826;-43
2022/08/15 03:58:17;;;;;;;10.07;8.33;;;22.90;46.10;;;;;;5052656;28;20931;-42
2022/08/15 04:00:46;;;;;;;12.97;7.93;;;22.90;46.10;;;;;;5055799;28;20165;-42
2022/08/15 04:03:22;;;;;;;9.50;8.47;;;22.90;46.50;;;;;;5055583;28;20502;-42
2022/08/15 04:05:50;;;;;;;10.70;8.53;;;22.80;46.50;;;;;;5055328;28;20426;-42
2022/08/15 04:08:18;;;;;;;9.73;7.20;;;22.80;46.30;;;;;;5055372;28;20415;-42
2022/08/15 04:10:46;;;;;;;8.80;7.63;;;22.80;46.20;;;;;;5055429;28;20407;-42
2022/08/15 04:13:12;;;;;;;13.60;8.53;;;22.80;46.30;;;;;;5055647;28;20404;-42
2022/08/15 04:15:38;;;;;;;10.77;8.60;;;22.80;46.30;;;;;;5055103;28;20892;-42
2022/08/15 04:18:05;;;;;;;10.17;8.00;;;22.80;46.40;;;;;;5055097;28;20424;-42
2022/08/15 04:20:31;;;;;;;14.03;8.63;;;22.80;46.50;;;;;;5055205;28;20400;-42
2022/08/15 04:22:57;;;;;;;11.10;8.80;;;22.80;46.40;;;;;;5055047;28;20946;-42
2022/08/15 04:25:36;;;;;;;11.83;9.53;;;22.80;46.50;;;;;;5055133;28;20403;-42
2022/08/15 04:28:05;;;;;;;10.03;7.73;;;22.80;46.40;;;;;;5055562;28;20455;-42
2022/08/15 04:30:37;;;;;;;9.60;8.50;;;22.90;46.50;;;;;;5055079;28;20396;-42
2022/08/15 04:33:24;;;;;;;13.33;9.03;;;22.90;46.60;;;;;;5054903;28;20960;-42
2022/08/15 04:35:59;;;;;;;9.80;7.87;;;22.80;46.70;;;;;;5054918;28;20482;-42
2022/08/15 04:38:26;;;;;;;11.53;9.13;;;22.90;46.80;;;;;;5054895;28;20431;-42
2022/08/15 04:40:54;;;;;;;10.07;8.00;;;22.90;46.80;;;;;;5054933;28;20407;-42
2022/08/15 04:43:21;;;;;;;10.67;9.40;;;23.00;46.90;;;;;;5054771;28;20404;-42
2022/08/15 04:45:48;;;;;;;9.43;8.00;;;23.00;46.80;;;;;;5054611;28;20396;-42
2022/08/15 04:48:14;;;;;;;10.97;7.97;;;23.00;46.60;;;;;;5054650;28;20867;-43
2022/08/15 04:50:42;;;;;;;10.77;8.37;;;23.10;46.70;;;;;;5055181;28;20396;-42
2022/08/15 04:53:08;;;;;;;13.80;9.63;;;23.20;46.80;;;;;;5054732;28;20407;-42
2022/08/15 04:55:36;;;;;;;11.83;8.03;;;23.20;46.70;;;;;;5054395;28;20469;-42
2022/08/15 04:58:02;;;;;;;12.23;9.97;;;23.20;46.80;;;;;;5054806;28;20446;-42
2022/08/15 05:00:30;;;;;;;10.47;8.30;;;23.30;46.90;;;;;;5054664;28;20764;-43
2022/08/15 05:03:08;;;;;;;12.80;7.90;;;23.30;46.90;;;;;;5054424;28;20879;-42
2022/08/15 05:05:40;;;;;;;11.40;8.57;;;23.40;46.70;;;;;;5054497;28;20426;-42
2022/08/15 05:08:07;;;;;;;15.73;9.90;;;23.40;46.60;;;;;;5054565;28;20447;-42
2022/08/15 05:10:33;;;;;;;12.37;8.70;;;23.50;46.60;;;;;;5053677;28;20415;-42
2022/08/15 05:13:18;;;;;;;9.60;7.60;;;23.60;46.50;;;;;;5054298;28;20408;-42
2022/08/15 05:15:46;;;;;;;9.53;8.30;;;23.70;46.50;;;;;;5054082;28;20392;-43
2022/08/15 05:18:12;;;;;;;9.67;7.57;;;23.80;46.30;;;;;;5054105;28;20951;-42
2022/08/15 05:20:41;;;;;;;9.70;8.40;;;23.90;46.50;;;;;;5054113;28;20415;-42
2022/08/15 05:23:11;;;;;;;13.80;9.97;;;24.00;46.60;;;;;;5054218;28;20459;-42
2022/08/15 05:25:39;;;;;;;12.53;9.00;;;24.00;46.70;;;;;;5053811;28;20404;-42
2022/08/15 05:28:06;;;;;;;11.53;9.17;;;24.10;46.70;;;;;;5053911;28;20510;-42
2022/08/15 05:30:33;;;;;;;14.00;10.10;;;24.10;46.50;;;;;;5053889;28;20841;-42
2022/08/15 05:33:06;;;;;;;10.10;6.80;;;24.20;46.40;;;;;;5053912;28;20416;-42
2022/08/15 05:35:33;;;;;;;12.53;8.27;;;24.30;46.50;;;;;;5053615;28;20756;-42
2022/08/15 05:38:03;;;;;;;10.90;8.97;;;24.40;46.30;;;;;;5053932;28;20487;-42
2022/08/15 05:40:39;;;;;;;12.23;8.83;;;24.40;46.00;;;;;;5053823;28;21044;-42
2022/08/15 05:43:18;;;;;;;9.27;8.37;;;24.50;46.10;;;;;;5053891;28;20447;-42
2022/08/15 05:45:56;;;;;;;8.90;7.80;;;24.50;45.90;;;;;;5053750;28;20384;-42
2022/08/15 05:48:31;;;;;;;13.87;9.30;;;24.60;46.00;;;;;;5053594;28;20448;-42
2022/08/15 05:51:07;;;;;;;12.70;9.17;;;24.60;46.10;;;;;;5053597;28;20380;-42
2022/08/15 05:53:48;;;;;;;11.50;8.60;;;24.70;46.10;;;;;;5053517;28;20384;-43
2022/08/15 05:56:29;;;;;;;9.07;8.07;;;24.60;46.20;;;;;;5053187;28;20384;-42
2022/08/15 05:59:05;;;;;;;11.00;8.93;;;24.60;46.00;;;;;;5053545;28;20420;-42
2022/08/15 06:01:55;;;;;;;10.23;9.10;;;24.70;46.30;;;;;;5053459;28;20450;-42
2022/08/15 06:04:36;;;;;;;11.80;7.97;;;24.70;46.40;;;;;;5053353;28;20447;-42
2022/08/15 06:07:06;;;;;;;12.17;9.50;;;24.70;46.40;;;;;;5053164;28;20407;-42
2022/08/15 06:09:51;;;;;;;9.20;7.80;;;24.70;46.40;;;;;;5053272;28;20399;-42
2022/08/15 06:12:25;;;;;;;9.83;8.83;;;24.80;46.30;;;;;;5053220;28;20410;-43
2022/08/15 06:14:55;;;;;;;9.93;8.23;;;24.80;46.10;;;;;;5053088;28;20400;-42
2022/08/15 06:17:24;;;;;;;10.53;8.13;;;24.90;46.30;;;;;;5052784;28;20443;-42
2022/08/15 06:19:51;;;;;;;8.60;7.70;;;24.90;46.20;;;;;;5053153;28;20408;-42
2022/08/15 06:22:35;;;;;;;10.87;8.20;;;25.00;46.40;;;;;;5034049;28;20451;-42
2022/08/15 06:25:28;;;;;;;13.83;9.57;;;25.00;46.30;;;;;;5053010;28;20389;-42
2022/08/15 06:28:09;;;;;;;12.97;9.03;;;25.10;46.30;;;;;;5052860;28;20423;-42
2022/08/15 06:31:16;;;;;;;9.77;7.20;;;25.10;46.10;;;;;;5052962;28;20874;-42
2022/08/15 06:33:58;;;;;;;11.90;8.90;;;25.20;46.00;;;;;;5007544;28;20821;-42
2022/08/15 06:36:38;;;;;;;13.07;9.10;;;25.30;46.20;;;;;;5052812;28;20384;-42
2022/08/15 06:39:22;;;;;;;11.90;8.03;;;25.30;46.30;;;;;;5052963;28;20388;-42
2022/08/15 06:42:06;;;;;;;9.37;7.63;;;25.30;46.50;;;;;;5052578;28;20454;-42
2022/08/15 06:44:33;;;;;;;11.27;8.27;;;25.40;46.60;;;;;;5052927;28;20404;-42
2022/08/15 06:47:07;;;;;;;11.37;8.70;;;25.40;46.50;;;;;;5052278;28;20427;-42
2022/08/15 06:49:37;;;;;;;14.10;8.80;;;25.50;46.70;;;;;;5052711;28;20743;-42
2022/08/15 06:52:05;;;;;;;12.00;8.40;;;25.60;46.50;;;;;;5052496;28;20414;-42
2022/08/15 06:54:32;;;;;;;12.47;9.30;;;25.70;46.40;;;;;;5052350;28;20914;-42
2022/08/15 06:57:16;;;;;;;14.63;8.07;;;25.80;46.60;;;;;;5052211;28;20455;-42
2022/08/15 07:00:00;;;;;;;9.87;8.20;;;26.00;46.90;;;;;;5052400;28;20470;-42
2022/08/15 07:02:36;;;;;;;10.93;7.90;;;26.00;46.60;;;;;;5052969;28;20443;-42
2022/08/15 07:05:20;;;;;;;12.00;8.03;;;26.10;46.30;;;;;;5053069;28;20384;-42
2022/08/15 07:07:58;;;;;;;10.83;7.30;;;26.20;46.40;;;;;;5052179;28;20473;-42
2022/08/15 07:10:48;;;;;;;9.17;6.70;;;26.40;46.50;;;;;;5052755;28;20399;-43
2022/08/15 07:13:21;;;;;;;8.80;7.33;;;26.50;46.40;;;;;;4997810;28;20412;-42
2022/08/15 07:15:56;;;;;;;12.33;8.47;;;26.70;45.70;;;;;;5052033;28;20392;-42
2022/08/15 07:18:30;;;;;;;10.53;7.40;;;26.90;45.70;;;;;;5052075;28;20422;-43
2022/08/15 07:21:05;;;;;;;12.30;7.70;;;27.10;46.30;;;;;;5052106;28;20400;-42
2022/08/15 07:23:35;;;;;;;9.13;6.93;;;27.30;46.10;;;;;;5052059;28;20438;-42
2022/08/15 07:26:10;;;;;;;8.80;7.90;;;27.40;45.30;;;;;;5051862;28;21002;-42
2022/08/15 07:28:41;;;;;;;10.27;8.23;;;27.50;44.70;;;;;;5034070;28;20431;-42
2022/08/15 07:31:23;;;;;;;9.27;7.17;;;27.60;44.50;;;;;;5052186;28;20491;-43
2022/08/15 07:33:51;;;;;;;7.63;6.80;;;27.70;44.10;;;;;;5051742;28;20396;-42
2022/08/15 07:36:33;;;;;;;8.57;7.20;;;27.80;43.90;;;;;;5051871;28;20435;-42
2022/08/15 07:39:00;;;;;;;10.27;7.23;;;28.00;43.70;;;;;;5051930;28;20407;-43
2022/08/15 07:41:32;;;;;;;8.40;6.77;;;28.10;44.00;;;;;;5051856;28;20473;-42
2022/08/15 07:43:59;;;;;;;8.67;6.90;;;28.20;43.40;;;;;;5052095;28;20422;-42
2022/08/15 07:46:44;;;;;;;8.83;7.93;;;28.30;43.00;;;;;;5051596;28;20400;-42
2022/08/15 07:49:16;;;;;;;8.77;7.87;;;28.40;43.10;;;;;;5051680;28;20499;-43
2022/08/15 07:52:26;;;;;;;10.63;8.83;;;28.40;42.00;;;;;;5051860;28;20491;-42
2022/08/15 07:54:55;;;;;;;9.60;8.10;;;28.50;41.70;;;;;;5026068;28;20419;-42
2022/08/15 07:57:30;;;;;;;9.40;6.87;;;28.60;42.60;;;;;;5051454;28;20420;-43
2022/08/15 08:00:09;;;;;;;9.80;8.50;;;28.80;42.60;;;;;;5051733;28;20406;-42
2022/08/15 08:03:00;;;;;;;7.57;6.67;;;29.00;43.40;;;;;;5051635;28;20469;-42
2022/08/15 08:05:31;;;;;;;7.57;6.70;;;29.10;42.60;;;;;;5051764;28;20388;-43
2022/08/15 08:08:01;;;;;;;9.00;7.47;;;29.10;40.70;;;;;;5051727;28;20434;-42
2022/08/15 08:10:29;;;;;;;9.67;7.07;;;29.20;40.80;;;;;;5051824;28;20391;-43
2022/08/15 08:13:10;;;;;;;8.73;7.83;;;29.30;39.90;;;;;;5052030;28;20470;-43
2022/08/15 08:15:36;;;;;;;8.03;6.50;;;29.30;39.00;;;;;;5051651;28;20399;-42
2022/08/15 08:18:24;;;;;;;7.20;5.20;;;29.30;40.20;;;;;;5051533;28;20792;-42
2022/08/15 08:21:02;;;;;;;6.90;5.60;;;29.50;38.80;;;;;;5051158;28;20179;-43
2022/08/15 08:23:53;;;;;;;8.43;6.70;;;29.60;39.70;;;;;;5051507;28;20883;-42
2022/08/15 08:26:31;;;;;;;8.73;7.43;;;29.80;39.70;;;;;;5037858;28;20412;-42
2022/08/15 08:29:28;;;;;;;10.00;6.57;;;29.90;39.00;;;;;;5051264;28;20399;-43
2022/08/15 08:32:12;;;;;;;7.00;5.90;;;30.10;39.90;;;;;;5051565;28;20399;-43
2022/08/15 08:35:28;;;;;;;9.60;6.30;;;30.30;38.00;;;;;;5051394;28;20411;-43
2022/08/15 08:38:19;;;;;;;10.17;7.10;;;30.50;37.60;;;;;;4931776;29;20433;-43
2022/08/15 08:41:29;;;;;;;12.17;7.40;;;30.60;38.60;;;;;;4931975;29;20402;-43
2022/08/15 08:43:57;;;;;;;10.93;7.33;;;30.70;38.30;;;;;;4888134;29;20460;-43
2022/08/15 08:46:29;;;;;;;9.23;6.53;;;30.90;38.10;;;;;;4934046;29;20419;-43
2022/08/15 08:49:09;;;;;;;10.20;7.80;;;31.00;39.50;;;;;;4935181;29;20953;-43
2022/08/15 08:52:13;;;;;;;11.30;7.00;;;31.20;37.20;;;;;;4935287;29;20428;-43
2022/08/15 08:54:45;;;;;;;8.40;6.77;;;31.20;35.20;;;;;;4935281;29;20499;-43
2022/08/15 08:57:16;;;;;;;16.07;6.63;;;31.20;35.90;;;;;;4934892;29;20475;-43
2022/08/15 08:59:55;;;;;;;7.07;5.57;;;31.20;36.30;;;;;;4935202;29;20894;-43
2022/08/15 09:02:43;;;;;;;8.03;5.87;;;31.20;35.90;;;;;;4934955;29;20462;-43
2022/08/15 09:05:17;;;;;;;9.00;7.07;;;31.20;36.20;;;;;;4935079;29;20401;-43
2022/08/15 09:07:49;;;;;;;7.97;6.40;;;31.40;36.60;;;;;;4957769;28;20443;-43
2022/08/15 09:10:34;;;;;;;8.23;6.60;;;31.60;36.10;;;;;;5054402;28;20892;-43
2022/08/15 09:15:54;;;;;;;7.70;5.70;;;31.90;34.90;;;;;;5054344;28;20418;-43
2022/08/15 09:18:26;;;;;;;7.40;6.30;;;32.00;35.70;;;;;;5054084;28;21024;-43
2022/08/15 09:20:52;;;;;;;6.77;6.07;;;32.20;35.40;;;;;;5054202;28;20423;-43
2022/08/15 09:23:17;;;;;;;7.37;5.37;;;32.30;35.60;;;;;;5053963;28;20458;-43
2022/08/15 09:26:14;;;;;;;9.30;6.17;;;32.50;36.00;;;;;;5054137;28;20255;-44
2022/08/15 09:28:46;;;;;;;7.87;6.60;;;32.50;35.10;;;;;;5049105;28;20208;-43
2022/08/15 09:31:20;;;;;;;8.07;6.10;;;32.40;34.60;;;;;;5053982;28;20958;-43
2022/08/15 09:34:15;;;;;;;7.97;5.90;;;32.40;34.40;;;;;;5053972;28;20400;-43
2022/08/15 09:36:52;;;;;;;7.57;6.20;;;32.30;34.20;;;;;;5053698;28;20396;-43
2022/08/15 09:40:02;;;;;;;9.70;7.17;;;32.20;33.60;;;;;;5053753;28;20407;-43
2022/08/15 09:42:49;;;;;;;9.53;6.57;;;32.20;35.10;;;;;;5053864;28;20940;-43
2022/08/15 09:45:17;;;;;;;7.50;6.70;;;32.20;35.60;;;;;;5053733;28;20494;-43
2022/08/15 09:47:59;;;;;;;9.33;7.17;;;32.30;35.30;;;;;;5053236;28;20443;-43
2022/08/15 09:50:57;;;;;;;6.97;6.27;;;32.40;34.40;;;;;;5053616;28;20405;-43
2022/08/15 09:53:41;;;;;;;6.80;6.07;;;32.40;35.10;;;;;;5053801;28;20404;-43
2022/08/15 09:56:17;;;;;;;8.17;6.50;;;32.40;34.50;;;;;;5053073;28;20410;-44
2022/08/15 09:59:17;;;;;;;11.23;7.77;;;32.40;33.60;;;;;;5053509;28;20431;-45
2022/08/15 10:02:20;;;;;;;7.57;6.20;;;32.40;33.60;;;;;;5038055;28;20460;-42
2022/08/15 10:04:49;;;;;;;8.60;6.90;;;32.40;34.30;;;;;;5047225;28;20425;-42
2022/08/15 10:07:15;;;;;;;7.17;6.23;;;32.40;33.10;;;;;;5053086;28;20442;-42
2022/08/15 10:10:00;;;;;;;7.23;6.40;;;32.40;33.40;;;;;;5053276;28;20892;-42
2022/08/15 10:12:27;;;;;;;6.47;5.27;;;32.50;34.20;;;;;;5053052;28;20645;-42
2022/08/15 10:14:53;;;;;;;7.77;6.57;;;32.70;33.50;;;;;;5053254;28;20499;-42
2022/08/15 10:17:41;;;;;;;9.20;6.90;;;32.80;33.80;;;;;;5052774;28;21004;-42
2022/08/15 10:20:30;;;;;;;6.93;5.90;;;32.90;33.50;;;;;;5053029;28;20170;-42
2022/08/15 10:23:10;;;;;;;6.53;5.83;;;33.20;33.10;;;;;;4997406;28;20992;-43
2022/08/15 10:25:41;;;;;;;8.10;6.03;;;33.30;32.40;;;;;;5052922;28;20413;-42
2022/08/15 10:28:23;;;;;;;8.70;6.03;;;33.40;31.70;;;;;;5053003;28;20446;-42
2022/08/15 10:31:00;;;;;;;6.57;5.83;;;33.40;31.80;;;;;;5052873;28;20894;-42
2022/08/15 10:33:32;;;;;;;8.23;5.57;;;33.40;30.20;;;;;;5052663;28;20416;-42
2022/08/15 10:36:17;;;;;;;9.10;6.37;;;33.30;31.50;;;;;;5052782;28;20411;-42
2022/08/15 10:39:10;;;;;;;7.90;6.90;;;33.30;30.90;;;;;;5052764;28;20432;-42
2022/08/15 10:42:23;;;;;;;6.07;5.27;;;33.40;30.80;;;;;;5052568;28;20452;-43
2022/08/15 10:45:24;;;;;;;7.90;6.53;;;33.50;31.10;;;;;;5039621;28;20423;-43
2022/08/15 10:48:21;;;;;;;7.27;5.67;;;33.60;30.70;;;;;;5052346;28;20503;-43
2022/08/15 10:51:18;;;;;;;6.80;5.57;;;33.70;29.90;;;;;;5052548;28;20396;-43
2022/08/15 10:53:52;;;;;;;6.73;5.90;;;33.70;29.00;;;;;;5052375;28;20408;-43
2022/08/15 10:56:25;;;;;;;10.73;6.53;;;33.60;29.60;;;;;;5052392;28;20409;-43
2022/08/15 10:59:18;;;;;;;8.67;6.60;;;33.60;29.90;;;;;;5052282;28;21090;-43
2022/08/15 11:01:45;;;;;;;6.30;5.20;;;33.60;30.00;;;;;;5051804;28;20612;-43
2022/08/15 11:04:35;;;;;;;6.43;5.37;;;33.70;29.90;;;;;;5052355;28;20419;-43
2022/08/15 11:07:16;;;;;;;8.07;5.87;;;33.90;30.60;;;;;;5052179;28;20431;-43
2022/08/15 11:09:42;;;;;;;5.80;5.17;;;34.10;30.90;;;;;;5051824;28;20912;-43
2022/08/15 11:12:10;;;;;;;6.40;5.80;;;34.30;29.30;;;;;;5052151;28;20891;-43
2022/08/15 11:14:43;;;;;;;6.50;5.70;;;34.40;29.50;;;;;;5052204;28;20408;-43
2022/08/15 11:17:18;;;;;;;8.57;6.07;;;34.50;28.80;;;;;;5051726;28;20447;-43
2022/08/15 11:19:51;;;;;;;7.00;5.73;;;34.40;27.80;;;;;;5051960;28;20503;-44
2022/08/15 11:22:33;;;;;;;7.00;5.83;;;34.20;28.70;;;;;;5052093;28;21080;-43
2022/08/15 11:25:21;;;;;;;7.00;5.63;;;34.00;29.80;;;;;;5052128;28;20457;-43
2022/08/15 11:28:04;;;;;;;12.03;5.67;;;33.80;29.10;;;;;;5050824;28;20444;-43
2022/08/15 11:30:34;;;;;;;7.30;5.27;;;33.70;29.10;;;;;;5052059;28;20404;-43
2022/08/15 11:33:20;;;;;;;7.13;6.33;;;33.40;29.30;;;;;;5052211;28;20422;-43
2022/08/15 11:35:47;;;;;;;8.87;5.63;;;33.20;29.40;;;;;;5051883;28;20399;-43
2022/08/15 11:38:16;;;;;;;8.40;6.23;;;33.00;30.30;;;;;;5051784;28;20830;-43
2022/08/15 11:40:49;;;;;;;8.30;5.47;;;32.90;29.90;;;;;;5051797;28;20416;-43
2022/08/15 11:43:17;;;;;;;7.80;6.80;;;32.90;29.80;;;;;;5051745;28;20447;-43
2022/08/15 11:45:51;;;;;;;6.40;5.30;;;32.80;30.40;;;;;;5051681;28;20412;-43
2022/08/15 11:48:36;;;;;;;7.63;6.10;;;32.70;30.70;;;;;;5051635;28;20447;-43
2022/08/15 11:51:21;;;;;;;8.67;7.77;;;32.60;30.80;;;;;;5051672;28;20408;-43
2022/08/15 11:54:23;;;;;;;6.87;6.17;;;32.50;31.30;;;;;;5051767;28;20561;-43
2022/08/15 11:56:48;;;;;;;7.53;6.30;;;32.30;31.30;;;;;;5050765;28;20437;-43
2022/08/15 11:59:37;;;;;;;9.87;5.40;;;32.10;31.60;;;;;;5051525;28;20511;-43
2022/08/15 12:02:13;;;;;;;7.60;6.50;;;32.00;31.40;;;;;;5051640;28;20232;-43
2022/08/15 12:04:47;;;;;;;9.00;6.17;;;31.90;31.40;;;;;;5051892;28;20392;-43
2022/08/15 12:07:27;;;;;;;6.67;5.97;;;31.70;32.20;;;;;;5051661;28;20426;-43
2022/08/15 12:09:55;;;;;;;10.50;6.53;;;31.60;33.50;;;;;;5051808;28;20779;-43
2022/08/15 12:12:46;;;;;;;7.50;6.47;;;31.50;34.00;;;;;;5051455;28;20814;-43
2022/08/15 12:15:40;;;;;;;6.70;5.03;;;31.40;35.10;;;;;;5051479;28;21062;-42
2022/08/15 12:18:18;;;;;;;7.87;5.70;;;31.30;35.60;;;;;;5051418;28;20429;-43
2022/08/15 12:20:59;;;;;;;7.77;6.70;;;31.00;36.50;;;;;;5053214;28;20417;-43
2022/08/15 12:23:31;;;;;;;8.80;6.57;;;30.80;36.50;;;;;;5055216;28;20457;-43
2022/08/15 12:26:01;;;;;;;8.43;6.80;;;30.60;36.90;;;;;;5055182;28;20499;-43
2022/08/15 12:28:29;;;;;;;7.00;6.00;;;30.50;37.20;;;;;;5055107;28;20418;-43
2022/08/15 12:31:02;;;;;;;7.33;5.80;;;30.40;37.30;;;;;;5055124;28;20404;-43
2022/08/15 12:33:31;;;;;;;7.20;6.23;;;30.30;37.60;;;;;;5055226;28;20412;-43
2022/08/15 12:35:58;;;;;;;17.83;6.83;;;30.30;37.30;;;;;;5055148;28;20497;-43
2022/08/15 12:38:24;;;;;;;13.40;6.03;;;30.30;37.20;;;;;;5055046;28;20427;-43
2022/08/15 12:40:50;;;;;;;6.73;5.60;;;30.30;37.40;;;;;;5055094;28;20442;-43
2022/08/15 12:43:17;;;;;;;6.00;4.93;;;30.30;37.40;;;;;;5054767;28;20952;-43
2022/08/15 12:45:45;;;;;;;5.53;4.90;;;30.30;37.00;;;;;;5054919;28;20822;-43
2022/08/15 12:48:33;;;;;;;6.23;5.13;;;30.20;37.20;;;;;;5054652;28;20976;-44
2022/08/15 12:51:01;;;;;;;6.03;4.90;;;30.20;37.30;;;;;;5054657;28;20445;-43
2022/08/15 12:53:26;;;;;;;6.07;4.43;;;30.20;37.30;;;;;;5054935;28;20408;-43
2022/08/15 12:55:52;;;;;;;5.90;5.30;;;30.30;37.90;;;;;;5054566;28;20769;-43
2022/08/15 12:58:20;;;;;;;9.83;5.17;;;30.30;38.10;;;;;;5054661;28;20197;-43
2022/08/15 13:00:50;;;;;;;5.97;4.60;;;30.40;38.10;;;;;;5054610;28;20693;-43
2022/08/15 13:03:23;;;;;;;9.70;5.50;;;30.50;38.10;;;;;;5054385;28;20447;-43
2022/08/15 13:06:02;;;;;;;6.27;4.70;;;30.50;38.60;;;;;;5054274;28;20771;-43
2022/08/15 13:08:28;;;;;;;10.00;4.93;;;30.60;38.00;;;;;;5054692;28;20455;-43
2022/08/15 13:10:54;;;;;;;7.17;5.20;;;30.60;37.90;;;;;;5054503;28;20573;-43
2022/08/15 13:13:21;;;;;;;7.70;5.43;;;30.60;37.50;;;;;;5054429;28;20619;-43
2022/08/15 13:15:48;;;;;;;6.10;4.90;;;30.70;37.60;;;;;;5054370;28;20539;-43
2022/08/15 13:18:19;;;;;;;7.80;5.30;;;30.60;37.10;;;;;;5055094;28;20927;-42
2022/08/15 13:23:38;;;;;;;6.93;4.77;;;30.60;36.60;;;;;;5054652;28;20450;-43
2022/08/15 13:26:08;;;;;;;7.20;5.70;;;30.70;36.40;;;;;;5054064;28;20410;-43
2022/08/15 13:28:36;;;;;;;5.87;4.33;;;30.60;36.30;;;;;;5055249;28;20506;-42
2022/08/15 13:31:03;;;;;;;7.53;4.80;;;30.60;36.20;;;;;;5054414;28;20450;-42